createdAt,value
2019-04-29T00:00:57.639Z,91.30
2019-04-29T00:03:45.638Z,91.10
2019-04-29T00:06:16.619Z,90.90
2019-04-29T00:08:49.480Z,91.00
2019-04-29T00:11:27.353Z,90.90
2019-04-29T00:14:01.872Z,90.90
2019-04-29T00:16:43.054Z,91.20
2019-04-29T00:19:22.297Z,91.20
2019-04-29T00:21:53.731Z,91.30
2019-04-29T00:24:32.875Z,91.80
2019-04-29T00:27:11.793Z,91.10
2019-04-29T00:29:46.623Z,91.30
2019-04-29T00:32:34.343Z,91.60
2019-04-29T00:35:08.995Z,91.60
2019-04-29T00:37:51.502Z,91.50
2019-04-29T00:40:37.878Z,90.40
2019-04-29T00:43:18.138Z,91.60
2019-04-29T00:46:11.003Z,91.70
2019-04-29T00:48:25.816Z,91.30
2019-04-29T00:56:49.408Z,90.40
2019-04-29T00:59:26.507Z,90.50
2019-04-29T01:01:57.919Z,90.50
2019-04-29T01:04:32.319Z,90.30
2019-04-29T01:07:16.574Z,90.20
2019-04-29T01:09:53.188Z,90.30
2019-04-29T01:12:33.465Z,90.70
2019-04-29T01:15:09.457Z,90.70
2019-04-29T01:23:44.919Z,91.00
2019-04-29T01:26:55.261Z,91.30
2019-04-29T01:29:22.644Z,91.40
2019-04-29T01:32:00.082Z,90.90
2019-04-29T01:34:55.249Z,91.00
2019-04-29T01:37:21.402Z,91.50
2019-04-29T01:40:17.358Z,91.70
2019-04-29T01:45:41.087Z,91.50
2019-04-29T01:48:32.932Z,91.50
2019-04-29T01:51:07.523Z,91.80
2019-04-29T01:56:39.794Z,92.10
2019-04-29T01:59:11.386Z,92.40
2019-04-29T02:01:48.426Z,92.00
2019-04-29T02:04:18.775Z,91.60
2019-04-29T02:06:59.035Z,91.70
2019-04-29T02:09:45.744Z,91.90
2019-04-29T02:12:40.745Z,91.90
2019-04-29T02:15:13.562Z,92.80
2019-04-29T02:17:47.501Z,91.70
2019-04-29T02:23:38.103Z,91.20
2019-04-29T02:26:20.216Z,90.60
2019-04-29T02:31:59.219Z,91.40
2019-04-29T02:34:27.817Z,92.00
2019-04-29T02:37:26.803Z,91.50
2019-04-29T02:40:01.949Z,91.80
2019-04-29T02:42:52.443Z,91.90
2019-04-29T02:45:33.079Z,91.50
2019-04-29T02:51:18.102Z,90.80
2019-04-29T02:53:50.721Z,90.80
2019-04-29T02:56:26.674Z,91.20
2019-04-29T02:59:05.637Z,91.30
2019-04-29T03:01:38.872Z,92.10
2019-04-29T03:04:18.187Z,91.90
2019-04-29T03:06:56.852Z,92.30
2019-04-29T03:09:26.983Z,92.70
2019-04-29T03:11:55.727Z,92.50
2019-04-29T03:14:27.521Z,93.20
2019-04-29T03:17:02.111Z,93.10
2019-04-29T03:20:20.051Z,93.00
2019-04-29T03:23:30.814Z,92.70
2019-04-29T03:26:25.106Z,93.00
2019-04-29T03:29:23.669Z,92.90
2019-04-29T03:32:00.837Z,93.10
2019-04-29T03:35:01.305Z,92.90
2019-04-29T03:37:38.635Z,92.70
2019-04-29T03:40:20.058Z,92.70
2019-04-29T03:42:55.573Z,93.30
2019-04-29T03:45:41.744Z,92.60
2019-04-29T03:48:19.399Z,92.90
2019-04-29T03:51:09.043Z,93.00
2019-04-29T03:53:41.880Z,92.70
2019-04-29T03:56:17.911Z,92.50
2019-04-29T03:58:49.229Z,92.00
2019-04-29T04:01:48.739Z,92.20
2019-04-29T04:04:43.545Z,92.50
2019-04-29T04:07:32.974Z,92.50
2019-04-29T04:10:11.584Z,92.20
2019-04-29T04:12:44.533Z,92.50
2019-04-29T04:15:18.754Z,92.30
2019-04-29T04:20:58.637Z,92.30
2019-04-29T04:23:29.356Z,92.10
2019-04-29T04:26:28.836Z,91.90
2019-04-29T04:31:57.216Z,93.20
2019-04-29T04:34:33.265Z,93.30
2019-04-29T04:37:26.719Z,93.20
2019-04-29T04:40:04.470Z,93.40
2019-04-29T04:48:36.383Z,94.50
2019-04-29T04:51:20.885Z,94.10
2019-04-29T04:53:42.447Z,94.30
2019-04-29T04:56:14.959Z,94.70
2019-04-29T04:58:54.278Z,94.60
2019-04-29T05:01:19.840Z,94.40
2019-04-29T05:03:49.914Z,94.70
2019-04-29T05:06:28.315Z,94.90
2019-04-29T05:09:18.036Z,94.40
2019-04-29T05:12:00.700Z,95.50
2019-04-29T05:14:38.579Z,95.50
2019-04-29T05:17:12.943Z,95.00
2019-04-29T05:19:43.011Z,93.30
2019-04-29T05:22:12.970Z,92.80
2019-04-29T05:24:43.087Z,89.30
2019-04-29T05:27:16.975Z,89.30
2019-04-29T05:29:54.429Z,89.10
2019-04-29T05:32:26.028Z,88.60
2019-04-29T05:35:14.571Z,86.90
2019-04-29T05:43:41.577Z,87.20
2019-04-29T05:49:41.757Z,86.70
2019-04-29T05:52:14.314Z,87.70
2019-04-29T05:55:05.429Z,85.50
2019-04-29T05:57:36.745Z,85.70
2019-04-29T06:00:33.432Z,86.90
2019-04-29T06:03:11.375Z,87.90
2019-04-29T06:05:46.003Z,88.40
2019-04-29T06:11:41.008Z,85.10
2019-04-29T06:14:22.118Z,86.50
2019-04-29T06:17:02.956Z,86.90
2019-04-29T06:19:29.324Z,84.60
2019-04-29T06:22:06.258Z,84.40
2019-04-29T06:25:16.141Z,85.60
2019-04-29T06:27:51.538Z,85.30
2019-04-29T06:30:14.205Z,84.10
2019-04-29T06:33:11.051Z,85.70
2019-04-29T06:35:57.104Z,84.10
2019-04-29T06:38:42.099Z,88.80
2019-04-29T06:41:15.041Z,87.70
2019-04-29T06:43:48.263Z,83.60
2019-04-29T06:46:23.644Z,86.20
2019-04-29T06:49:09.088Z,77.70
2019-04-29T06:51:32.351Z,73.80
2019-04-29T06:54:04.178Z,70.60
2019-04-29T06:56:43.472Z,68.40
2019-04-29T06:59:34.679Z,74.50
2019-04-29T07:02:18.021Z,66.30
2019-04-29T07:04:52.249Z,68.40
2019-04-29T07:07:24.545Z,69.90
2019-04-29T07:09:56.966Z,65.60
2019-04-29T07:12:31.839Z,66.40
2019-04-29T07:15:30.346Z,62.60
2019-04-29T07:17:59.793Z,62.10
2019-04-29T07:20:42.004Z,61.00
2019-04-29T07:23:23.601Z,63.70
2019-04-29T07:25:59.363Z,61.50
2019-04-29T07:31:33.196Z,58.80
2019-04-29T07:34:08.279Z,60.30
2019-04-29T07:37:05.024Z,57.00
2019-04-29T07:39:31.801Z,59.30
2019-04-29T07:42:06.115Z,57.00
2019-04-29T07:44:44.245Z,57.70
2019-04-29T07:47:24.943Z,57.80
2019-04-29T07:53:00.022Z,59.70
2019-04-29T07:55:36.427Z,58.30
2019-04-29T07:58:10.960Z,58.20
2019-04-29T08:00:50.024Z,57.30
2019-04-29T08:08:58.814Z,56.50
2019-04-29T08:11:34.651Z,59.30
2019-04-29T08:14:07.574Z,55.50
2019-04-29T08:16:46.337Z,55.60
2019-04-29T08:19:24.624Z,53.10
2019-04-29T08:21:58.180Z,56.10
2019-04-29T08:24:32.787Z,52.30
2019-04-29T08:27:05.562Z,50.60
2019-04-29T08:30:11.225Z,54.00
2019-04-29T08:32:50.057Z,47.90
2019-04-29T08:35:32.691Z,50.40
2019-04-29T08:37:58.920Z,53.40
2019-04-29T08:40:38.463Z,52.90
2019-04-29T08:43:24.795Z,51.30
2019-04-29T08:46:00.376Z,53.50
2019-04-29T08:51:29.465Z,50.90
2019-04-29T08:54:02.957Z,51.40
2019-04-29T08:56:35.273Z,50.10
2019-04-29T08:59:13.101Z,50.80
2019-04-29T09:01:55.959Z,52.80
2019-04-29T09:04:20.384Z,50.90
2019-04-29T09:07:11.789Z,53.90
2019-04-29T09:09:29.547Z,51.90
2019-04-29T09:14:58.489Z,52.10
2019-04-29T09:17:28.588Z,53.50
2019-04-29T09:20:00.016Z,54.40
2019-04-29T09:22:42.526Z,53.00
2019-04-29T09:25:26.165Z,56.00
2019-04-29T09:28:01.196Z,56.60
2019-04-29T09:30:38.522Z,57.20
2019-04-29T09:33:49.044Z,56.00
2019-04-29T09:36:18.937Z,55.50
2019-04-29T09:41:54.254Z,58.60
2019-04-29T09:44:29.143Z,58.10
2019-04-29T09:47:04.155Z,60.80
2019-04-29T09:49:39.679Z,59.40
2019-04-29T09:52:18.732Z,58.90
2019-04-29T09:54:51.752Z,59.40
2019-04-29T09:57:20.353Z,57.60
2019-04-29T10:00:05.375Z,57.90
2019-04-29T10:02:58.898Z,59.90
2019-04-29T10:08:53.883Z,56.50
2019-04-29T10:11:38.870Z,57.10
2019-04-29T10:14:18.693Z,56.20
2019-04-29T10:17:28.863Z,54.30
2019-04-29T10:20:10.841Z,56.10
2019-04-29T10:23:07.767Z,55.80
2019-04-29T10:26:08.585Z,53.40
2019-04-29T10:29:13.736Z,52.60
2019-04-29T10:31:47.626Z,51.80
2019-04-29T10:34:33.412Z,52.60
2019-04-29T10:37:05.163Z,54.90
2019-04-29T10:40:11.057Z,54.90
2019-04-29T10:42:39.359Z,57.20
2019-04-29T10:48:37.411Z,55.70
2019-04-29T10:51:16.438Z,57.40
2019-04-29T10:56:35.360Z,57.80
2019-04-29T10:59:14.250Z,55.60
2019-04-29T11:08:21.103Z,57.10
2019-04-29T11:13:50.856Z,58.90
2019-04-29T11:16:29.501Z,59.80
2019-04-29T11:19:00.184Z,58.80
2019-04-29T11:21:40.347Z,60.40
2019-04-29T11:27:18.079Z,59.80
2019-04-29T11:29:58.551Z,59.10
2019-04-29T11:32:45.021Z,60.20
2019-04-29T11:35:28.492Z,59.80
2019-04-29T11:37:59.464Z,59.40
2019-04-29T11:40:44.210Z,58.90
2019-04-29T11:43:20.731Z,63.10
2019-04-29T11:49:17.115Z,60.90
2019-04-29T11:52:08.996Z,62.90
2019-04-29T11:55:18.320Z,64.60
2019-04-29T11:57:58.797Z,65.30
2019-04-29T12:01:03.916Z,66.80
2019-04-29T12:04:00.056Z,66.10
2019-04-29T12:06:35.544Z,68.60
2019-04-29T12:09:12.262Z,69.00
2019-04-29T12:11:47.111Z,70.10
2019-04-29T12:14:57.644Z,70.90
2019-04-29T12:17:56.876Z,70.40
2019-04-29T12:20:39.080Z,72.30
2019-04-29T12:23:17.310Z,72.80
2019-04-29T12:25:52.223Z,72.50
2019-04-29T12:28:30.968Z,73.50
2019-04-29T12:39:44.965Z,74.00
2019-04-29T12:42:48.194Z,73.10
2019-04-29T12:45:28.675Z,73.80
2019-04-29T12:48:06.930Z,75.60
2019-04-29T12:50:58.566Z,76.40
2019-04-29T12:53:29.266Z,75.10
2019-04-29T12:56:11.455Z,77.50
2019-04-29T12:58:50.424Z,77.20
2019-04-29T13:01:49.481Z,75.70
2019-04-29T13:04:27.993Z,77.10
2019-04-29T13:09:56.808Z,80.20
2019-04-29T13:12:58.024Z,81.00
2019-04-29T13:15:49.683Z,83.70
2019-04-29T13:19:11.715Z,81.60
2019-04-29T13:21:20.569Z,84.80
2019-04-29T13:24:13.515Z,84.70
2019-04-29T13:29:43.962Z,86.10
2019-04-29T13:32:25.439Z,85.30
2019-04-29T13:35:00.362Z,87.60
2019-04-29T13:37:47.438Z,86.70
2019-04-29T13:40:42.828Z,88.10
2019-04-29T13:43:25.898Z,88.80
2019-04-29T13:45:56.831Z,89.20
2019-04-29T13:48:54.665Z,88.40
2019-04-29T13:51:39.552Z,88.10
2019-04-29T13:54:10.108Z,87.80
2019-04-29T13:56:55.431Z,87.90
2019-04-29T13:59:22.357Z,86.10
2019-04-29T14:02:01.591Z,86.80
2019-04-29T14:04:33.254Z,86.40
2019-04-29T14:07:39.847Z,86.50
2019-04-29T14:10:14.817Z,85.90
2019-04-29T14:13:13.475Z,88.60
2019-04-29T14:16:01.147Z,88.90
2019-04-29T14:18:39.135Z,87.10
2019-04-29T14:23:51.319Z,91.10
2019-04-29T14:27:24.426Z,91.20
2019-04-29T14:29:04.023Z,90.90
2019-04-29T14:31:32.645Z,92.30
2019-04-29T14:34:34.970Z,92.30
2019-04-29T14:37:23.515Z,93.10
2019-04-29T14:40:09.638Z,93.00
2019-04-29T14:42:39.891Z,94.00
2019-04-29T14:45:12.370Z,92.70
2019-04-29T14:50:49.638Z,92.90
2019-04-29T14:53:24.388Z,94.90
2019-04-29T14:55:53.218Z,94.80
2019-04-29T14:58:24.886Z,94.10
2019-04-29T15:00:57.607Z,95.60
2019-04-29T15:03:31.575Z,95.20
2019-04-29T15:06:04.537Z,94.50
2019-04-29T15:08:43.372Z,95.00
2019-04-29T15:11:30.989Z,95.50
2019-04-29T15:13:54.781Z,95.60
2019-04-29T15:20:09.599Z,96.30
2019-04-29T15:22:45.075Z,95.60
2019-04-29T15:25:16.663Z,97.00
2019-04-29T15:27:50.728Z,95.00
2019-04-29T15:30:22.039Z,96.80
2019-04-29T15:32:57.822Z,97.60
2019-04-29T15:35:32.988Z,96.40
2019-04-29T15:38:05.451Z,94.50
2019-04-29T15:40:44.080Z,96.80
2019-04-29T15:43:13.371Z,96.20
2019-04-29T15:45:44.718Z,96.30
2019-04-29T15:48:20.178Z,95.20
2019-04-29T15:51:02.118Z,96.50
2019-04-29T15:53:55.123Z,96.30
2019-04-29T15:56:33.703Z,96.70
2019-04-29T15:59:15.478Z,96.50
2019-04-29T16:01:45.843Z,96.10
2019-04-29T16:04:27.697Z,96.30
2019-04-29T16:07:24.468Z,95.90
2019-04-29T16:13:27.770Z,95.50
2019-04-29T16:15:57.857Z,96.70
2019-04-29T16:18:37.718Z,96.50
2019-04-29T16:21:39.071Z,96.20
2019-04-29T16:24:24.787Z,95.80
2019-04-29T16:27:27.543Z,96.90
2019-04-29T16:30:06.641Z,96.40
2019-04-29T16:32:41.257Z,95.70
2019-04-29T16:35:26.079Z,95.80
2019-04-29T16:37:56.832Z,95.70
2019-04-29T16:43:27.525Z,96.60
2019-04-29T16:45:59.477Z,95.80
2019-04-29T16:48:43.192Z,96.70
2019-04-29T16:51:17.371Z,96.70
2019-04-29T16:57:03.811Z,96.90
2019-04-29T17:03:06.156Z,97.20
2019-04-29T17:05:43.023Z,96.70
2019-04-29T17:11:26.115Z,96.90
2019-04-29T17:14:26.474Z,97.50
2019-04-29T17:17:05.546Z,98.00
2019-04-29T17:19:46.808Z,97.70
2019-04-29T17:22:43.093Z,96.80
2019-04-29T17:26:05.341Z,96.70
2019-04-29T17:28:29.358Z,97.00
2019-04-29T17:31:12.332Z,96.70
2019-04-29T17:35:19.236Z,97.00
2019-04-29T17:36:31.024Z,97.70
2019-04-29T17:39:01.894Z,97.20
2019-04-29T17:41:44.395Z,96.50
2019-04-29T17:44:41.287Z,96.90
2019-04-29T17:47:37.968Z,96.80
2019-04-29T17:50:28.882Z,97.30
2019-04-29T17:52:57.467Z,97.10
2019-04-29T17:55:46.847Z,97.40
2019-04-29T17:58:25.783Z,97.40
2019-04-29T18:01:27.889Z,97.20
2019-04-29T18:04:06.539Z,97.50
2019-04-29T18:09:29.604Z,96.60
2019-04-29T18:12:10.346Z,97.50
2019-04-29T18:15:10.730Z,98.00
2019-04-29T18:18:08.781Z,97.50
2019-04-29T18:20:59.483Z,96.90
2019-04-29T18:23:29.335Z,97.20
2019-04-29T18:26:09.429Z,96.30
2019-04-29T18:29:06.043Z,96.20
2019-04-29T18:31:46.576Z,96.50
2019-04-29T18:34:29.365Z,96.50
2019-04-29T18:37:21.231Z,96.70
2019-04-29T18:39:51.444Z,96.50
2019-04-29T18:42:27.013Z,96.60
2019-04-29T18:45:05.210Z,96.50
2019-04-29T18:47:43.082Z,96.70
2019-04-29T18:53:10.213Z,96.80
2019-04-29T18:56:07.134Z,96.80
2019-04-29T18:58:56.277Z,97.40
2019-04-29T19:01:29.006Z,96.80
2019-04-29T19:04:16.097Z,97.00
2019-04-29T19:06:41.293Z,97.50
2019-04-29T19:09:18.528Z,97.40
2019-04-29T19:11:43.419Z,97.00
2019-04-29T19:14:28.071Z,96.40
2019-04-29T19:19:42.366Z,96.70
2019-04-29T19:22:19.899Z,96.60
2019-04-29T19:25:12.920Z,96.90
2019-04-29T19:30:35.491Z,97.00
2019-04-29T19:33:12.898Z,97.00
2019-04-29T19:35:40.037Z,96.80
2019-04-29T19:38:13.445Z,96.90
2019-04-29T19:44:12.431Z,97.10
2019-04-29T19:46:42.521Z,97.20
2019-04-29T19:49:15.685Z,97.40
2019-04-29T19:51:47.854Z,97.50
2019-04-29T19:54:39.919Z,97.70
2019-04-29T19:57:14.854Z,97.60
2019-04-29T19:59:51.381Z,97.40
2019-04-29T20:02:22.168Z,96.80
2019-04-29T20:04:58.812Z,96.90
2019-04-29T20:07:41.213Z,97.20
2019-04-29T20:10:10.161Z,97.20
2019-04-29T20:12:46.202Z,97.40
2019-04-29T20:15:19.476Z,97.50
2019-04-29T20:18:32.962Z,97.10
2019-04-29T20:23:54.015Z,97.30
2019-04-29T20:26:30.030Z,97.20
2019-04-29T20:29:02.126Z,97.70
2019-04-29T20:31:39.091Z,97.70
2019-04-29T20:34:13.149Z,98.20
2019-04-29T20:37:16.085Z,98.20
2019-04-29T20:40:15.956Z,97.60
2019-04-29T20:42:48.981Z,97.60
2019-04-29T20:45:25.444Z,98.00
2019-04-29T20:47:56.089Z,98.20
2019-04-29T20:50:39.310Z,98.50
2019-04-29T20:53:37.857Z,98.40
2019-04-29T20:56:11.916Z,98.50
2019-04-29T20:59:28.299Z,98.80
2019-04-29T21:01:46.648Z,98.50
2019-04-29T21:08:14.655Z,98.60
2019-04-29T21:16:33.847Z,99.50
2019-04-29T21:19:08.800Z,99.20
2019-04-29T21:21:47.912Z,99.90
2019-04-29T21:24:19.205Z,99.90
2019-04-29T21:26:57.398Z,99.90
2019-04-29T21:30:01.610Z,99.90
2019-04-29T21:32:25.922Z,99.70
2019-04-29T21:35:01.991Z,99.90
2019-04-29T21:37:40.076Z,99.90
2019-04-29T21:40:38.540Z,99.90
2019-04-29T21:43:28.122Z,99.90
2019-04-29T21:46:05.747Z,99.90
2019-04-29T21:48:37.454Z,99.90
2019-04-29T21:51:35.514Z,99.90
2019-04-29T21:54:31.974Z,99.90
2019-04-29T21:57:05.680Z,99.90
2019-04-29T21:59:46.147Z,99.90
2019-04-29T22:02:46.627Z,99.90
2019-04-29T22:05:49.136Z,99.90
2019-04-29T22:08:20.053Z,99.90
2019-04-29T22:10:58.127Z,99.90
2019-04-29T22:16:27.672Z,99.90
2019-04-29T22:18:55.457Z,99.90
2019-04-29T22:22:01.756Z,99.90
2019-04-29T22:24:42.238Z,99.90
2019-04-29T22:27:10.817Z,99.90
2019-04-29T22:29:42.839Z,99.90
2019-04-29T22:32:19.158Z,99.90
2019-04-29T22:34:54.418Z,99.90
2019-04-29T22:37:34.033Z,99.90
2019-04-29T22:40:28.614Z,99.90
2019-04-29T22:43:08.466Z,99.90
2019-04-29T22:46:04.777Z,99.90
2019-04-29T22:48:40.620Z,99.90
2019-04-29T22:51:18.729Z,99.90
2019-04-29T22:53:50.039Z,99.90
2019-04-29T22:57:02.631Z,99.90
2019-04-29T22:59:40.283Z,99.90
2019-04-29T23:02:25.058Z,99.90
2019-04-29T23:05:18.227Z,99.90
2019-04-29T23:07:52.918Z,99.90
2019-04-29T23:10:28.906Z,99.90
2019-04-29T23:13:00.587Z,99.90
2019-04-29T23:15:42.039Z,99.90
2019-04-29T23:21:56.601Z,99.90
2019-04-29T23:24:51.196Z,99.90
2019-04-29T23:27:11.526Z,99.90
2019-04-29T23:30:01.045Z,99.90
2019-04-29T23:35:26.768Z,99.90
2019-04-29T23:38:03.905Z,99.90
2019-04-29T23:43:45.601Z,99.90
2019-04-29T23:46:43.776Z,99.90
2019-04-29T23:52:06.857Z,99.90
2019-04-29T23:54:45.566Z,99.90
